sensor_id;sensor_type;location;lat;lon;timestamp;P1;durP1;ratioP1;P2;durP2;ratioP2
22166;SDS011;11249;52.468;13.776;2022-09-09T00:04:31;8.60;;;7.80;;
22166;SDS011;11249;52.468;13.776;2022-09-09T00:07:04;8.25;;;7.50;;
22166;SDS011;11249;52.468;13.776;2022-09-09T00:10:00;8.48;;;7.60;;
22166;SDS011;11249;52.468;13.776;2022-09-09T00:18:45;8.20;;;6.55;;
22166;SDS011;11249;52.468;13.776;2022-09-09T00:21:34;8.50;;;7.78;;
22166;SDS011;11249;52.468;13.776;2022-09-09T00:27:29;6.90;;;6.30;;
22166;SDS011;11249;52.468;13.776;2022-09-09T00:32:46;7.38;;;6.68;;
22166;SDS011;11249;52.468;13.776;2022-09-09T00:37:50;8.05;;;7.22;;
22166;SDS011;11249;52.468;13.776;2022-09-09T00:40:33;8.65;;;7.78;;
22166;SDS011;11249;52.468;13.776;2022-09-09T00:43:25;10.52;;;8.10;;
22166;SDS011;11249;52.468;13.776;2022-09-09T00:46:05;8.02;;;6.63;;
22166;SDS011;11249;52.468;13.776;2022-09-09T00:48:41;7.22;;;6.53;;
22166;SDS011;11249;52.468;13.776;2022-09-09T00:56:47;10.75;;;7.90;;
22166;SDS011;11249;52.468;13.776;2022-09-09T00:59:28;8.65;;;7.78;;
22166;SDS011;11249;52.468;13.776;2022-09-09T01:02:28;11.27;;;7.75;;
22166;SDS011;11249;52.468;13.776;2022-09-09T01:04:58;10.20;;;8.18;;
22166;SDS011;11249;52.468;13.776;2022-09-09T01:07:32;9.85;;;8.85;;
22166;SDS011;11249;52.468;13.776;2022-09-09T01:09:59;9.48;;;7.72;;
22166;SDS011;11249;52.468;13.776;2022-09-09T01:12:40;10.77;;;8.60;;
22166;SDS011;11249;52.468;13.776;2022-09-09T01:15:12;12.50;;;9.35;;
22166;SDS011;11249;52.468;13.776;2022-09-09T01:28:10;8.65;;;7.75;;
22166;SDS011;11249;52.468;13.776;2022-09-09T01:30:42;8.85;;;6.53;;
22166;SDS011;11249;52.468;13.776;2022-09-09T01:33:10;8.45;;;6.63;;
22166;SDS011;11249;52.468;13.776;2022-09-09T01:36:03;7.10;;;6.30;;
22166;SDS011;11249;52.468;13.776;2022-09-09T01:38:38;9.88;;;7.32;;
22166;SDS011;11249;52.468;13.776;2022-09-09T01:41:06;8.27;;;7.45;;
22166;SDS011;11249;52.468;13.776;2022-09-09T01:43:33;7.15;;;6.43;;
22166;SDS011;11249;52.468;13.776;2022-09-09T01:46:00;9.40;;;7.70;;
22166;SDS011;11249;52.468;13.776;2022-09-09T01:48:29;6.93;;;6.22;;
22166;SDS011;11249;52.468;13.776;2022-09-09T01:50:56;7.13;;;6.15;;
22166;SDS011;11249;52.468;13.776;2022-09-09T01:53:23;8.85;;;6.82;;
22166;SDS011;11249;52.468;13.776;2022-09-09T01:55:56;8.63;;;7.45;;
22166;SDS011;11249;52.468;13.776;2022-09-09T02:04:12;8.52;;;7.25;;
22166;SDS011;11249;52.468;13.776;2022-09-09T02:06:50;8.75;;;6.90;;
22166;SDS011;11249;52.468;13.776;2022-09-09T02:09:22;6.90;;;6.30;;
22166;SDS011;11249;52.468;13.776;2022-09-09T02:11:54;9.05;;;6.55;;
22166;SDS011;11249;52.468;13.776;2022-09-09T02:14:34;5.63;;;5.13;;
22166;SDS011;11249;52.468;13.776;2022-09-09T02:17:08;6.13;;;5.53;;
22166;SDS011;11249;52.468;13.776;2022-09-09T02:19:37;7.25;;;6.32;;
22166;SDS011;11249;52.468;13.776;2022-09-09T02:22:10;6.47;;;5.82;;
22166;SDS011;11249;52.468;13.776;2022-09-09T02:24:38;8.30;;;6.93;;
22166;SDS011;11249;52.468;13.776;2022-09-09T02:27:06;7.68;;;6.97;;
22166;SDS011;11249;52.468;13.776;2022-09-09T02:29:36;7.20;;;6.50;;
22166;SDS011;11249;52.468;13.776;2022-09-09T02:32:17;8.15;;;6.55;;
22166;SDS011;11249;52.468;13.776;2022-09-09T02:34:48;7.85;;;6.18;;
22166;SDS011;11249;52.468;13.776;2022-09-09T02:37:36;9.82;;;6.32;;
22166;SDS011;11249;52.468;13.776;2022-09-09T02:40:06;8.80;;;5.93;;
22166;SDS011;11249;52.468;13.776;2022-09-09T02:42:41;7.68;;;5.68;;
22166;SDS011;11249;52.468;13.776;2022-09-09T02:45:10;7.95;;;7.15;;
22166;SDS011;11249;52.468;13.776;2022-09-09T02:47:50;8.40;;;7.22;;
22166;SDS011;11249;52.468;13.776;2022-09-09T02:50:25;7.65;;;6.65;;
22166;SDS011;11249;52.468;13.776;2022-09-09T02:53:19;8.95;;;8.05;;
22166;SDS011;11249;52.468;13.776;2022-09-09T02:55:52;8.00;;;7.00;;
22166;SDS011;11249;52.468;13.776;2022-09-09T02:58:35;6.22;;;5.63;;
22166;SDS011;11249;52.468;13.776;2022-09-09T03:01:02;12.93;;;7.45;;
22166;SDS011;11249;52.468;13.776;2022-09-09T03:03:29;8.77;;;7.68;;
22166;SDS011;11249;52.468;13.776;2022-09-09T03:05:57;5.90;;;5.35;;
22166;SDS011;11249;52.468;13.776;2022-09-09T03:08:24;8.38;;;7.13;;
22166;SDS011;11249;52.468;13.776;2022-09-09T03:10:51;9.57;;;6.10;;
22166;SDS011;11249;52.468;13.776;2022-09-09T03:13:20;6.30;;;5.75;;
22166;SDS011;11249;52.468;13.776;2022-09-09T03:15:47;8.90;;;6.65;;
22166;SDS011;11249;52.468;13.776;2022-09-09T03:18:14;7.57;;;6.65;;
22166;SDS011;11249;52.468;13.776;2022-09-09T03:20:41;7.85;;;6.32;;
22166;SDS011;11249;52.468;13.776;2022-09-09T03:23:08;10.43;;;8.52;;
22166;SDS011;11249;52.468;13.776;2022-09-09T03:25:46;7.78;;;6.90;;
22166;SDS011;11249;52.468;13.776;2022-09-09T03:28:14;8.77;;;7.45;;
22166;SDS011;11249;52.468;13.776;2022-09-09T03:30:41;8.52;;;6.82;;
22166;SDS011;11249;52.468;13.776;2022-09-09T03:33:08;9.45;;;7.97;;
22166;SDS011;11249;52.468;13.776;2022-09-09T03:35:34;10.30;;;8.98;;
22166;SDS011;11249;52.468;13.776;2022-09-09T03:38:02;8.88;;;7.97;;
22166;SDS011;11249;52.468;13.776;2022-09-09T03:40:28;9.77;;;8.60;;
22166;SDS011;11249;52.468;13.776;2022-09-09T03:42:57;10.02;;;8.98;;
22166;SDS011;11249;52.468;13.776;2022-09-09T03:45:23;8.70;;;7.80;;
22166;SDS011;11249;52.468;13.776;2022-09-09T03:47:50;9.90;;;8.90;;
22166;SDS011;11249;52.468;13.776;2022-09-09T03:50:17;9.45;;;8.13;;
22166;SDS011;11249;52.468;13.776;2022-09-09T03:52:44;10.30;;;9.13;;
22166;SDS011;11249;52.468;13.776;2022-09-09T03:55:12;7.78;;;7.05;;
22166;SDS011;11249;52.468;13.776;2022-09-09T03:57:38;8.68;;;7.78;;
22166;SDS011;11249;52.468;13.776;2022-09-09T04:00:05;7.82;;;7.07;;
22166;SDS011;11249;52.468;13.776;2022-09-09T04:02:33;10.07;;;9.07;;
22166;SDS011;11249;52.468;13.776;2022-09-09T04:05:00;9.85;;;7.95;;
22166;SDS011;11249;52.468;13.776;2022-09-09T04:07:27;9.38;;;7.35;;
22166;SDS011;11249;52.468;13.776;2022-09-09T04:09:54;10.35;;;8.07;;
22166;SDS011;11249;52.468;13.776;2022-09-09T04:12:21;13.25;;;9.30;;
22166;SDS011;11249;52.468;13.776;2022-09-09T04:14:48;10.68;;;8.20;;
22166;SDS011;11249;52.468;13.776;2022-09-09T04:17:15;11.57;;;9.55;;
22166;SDS011;11249;52.468;13.776;2022-09-09T04:19:41;11.55;;;7.10;;
22166;SDS011;11249;52.468;13.776;2022-09-09T04:22:08;8.73;;;7.82;;
22166;SDS011;11249;52.468;13.776;2022-09-09T04:24:35;11.30;;;7.40;;
22166;SDS011;11249;52.468;13.776;2022-09-09T04:27:02;9.93;;;8.18;;
22166;SDS011;11249;52.468;13.776;2022-09-09T04:29:29;7.22;;;6.60;;
22166;SDS011;11249;52.468;13.776;2022-09-09T04:31:55;8.35;;;7.40;;
22166;SDS011;11249;52.468;13.776;2022-09-09T04:34:22;9.32;;;7.40;;
22166;SDS011;11249;52.468;13.776;2022-09-09T04:36:49;7.18;;;6.47;;
22166;SDS011;11249;52.468;13.776;2022-09-09T04:39:19;9.98;;;7.80;;
22166;SDS011;11249;52.468;13.776;2022-09-09T04:41:45;9.13;;;8.07;;
22166;SDS011;11249;52.468;13.776;2022-09-09T04:44:13;7.57;;;6.53;;
22166;SDS011;11249;52.468;13.776;2022-09-09T04:46:40;8.75;;;7.28;;
22166;SDS011;11249;52.468;13.776;2022-09-09T04:49:07;9.45;;;8.20;;
22166;SDS011;11249;52.468;13.776;2022-09-09T04:51:40;9.23;;;7.63;;
22166;SDS011;11249;52.468;13.776;2022-09-09T04:54:06;7.75;;;6.85;;
22166;SDS011;11249;52.468;13.776;2022-09-09T04:56:33;8.00;;;7.22;;
22166;SDS011;11249;52.468;13.776;2022-09-09T04:59:00;9.73;;;6.30;;
22166;SDS011;11249;52.468;13.776;2022-09-09T05:01:28;10.13;;;7.55;;
22166;SDS011;11249;52.468;13.776;2022-09-09T05:03:55;7.97;;;6.38;;
22166;SDS011;11249;52.468;13.776;2022-09-09T05:06:22;7.80;;;6.13;;
22166;SDS011;11249;52.468;13.776;2022-09-09T05:08:49;6.68;;;6.07;;
22166;SDS011;11249;52.468;13.776;2022-09-09T05:13:45;7.72;;;6.60;;
22166;SDS011;11249;52.468;13.776;2022-09-09T05:16:12;8.52;;;7.70;;
22166;SDS011;11249;52.468;13.776;2022-09-09T05:18:40;6.60;;;6.00;;
22166;SDS011;11249;52.468;13.776;2022-09-09T05:21:09;8.57;;;6.10;;
22166;SDS011;11249;52.468;13.776;2022-09-09T05:23:36;6.88;;;5.95;;
22166;SDS011;11249;52.468;13.776;2022-09-09T05:26:04;12.70;;;8.93;;
22166;SDS011;11249;52.468;13.776;2022-09-09T05:28:33;11.07;;;7.05;;
22166;SDS011;11249;52.468;13.776;2022-09-09T05:33:34;8.63;;;5.97;;
22166;SDS011;11249;52.468;13.776;2022-09-09T05:36:03;7.70;;;6.65;;
22166;SDS011;11249;52.468;13.776;2022-09-09T05:38:34;8.85;;;7.88;;
22166;SDS011;11249;52.468;13.776;2022-09-09T05:41:02;8.73;;;6.70;;
22166;SDS011;11249;52.468;13.776;2022-09-09T05:43:29;11.02;;;7.57;;
22166;SDS011;11249;52.468;13.776;2022-09-09T05:46:14;8.55;;;7.63;;
22166;SDS011;11249;52.468;13.776;2022-09-09T05:48:46;8.25;;;7.38;;
22166;SDS011;11249;52.468;13.776;2022-09-09T05:51:15;8.30;;;7.13;;
22166;SDS011;11249;52.468;13.776;2022-09-09T05:53:44;7.57;;;6.83;;
22166;SDS011;11249;52.468;13.776;2022-09-09T05:56:15;12.70;;;7.85;;
22166;SDS011;11249;52.468;13.776;2022-09-09T05:58:48;10.63;;;6.82;;
22166;SDS011;11249;52.468;13.776;2022-09-09T06:01:17;7.13;;;6.43;;
22166;SDS011;11249;52.468;13.776;2022-09-09T06:03:46;6.80;;;6.05;;
22166;SDS011;11249;52.468;13.776;2022-09-09T06:06:15;8.57;;;6.50;;
22166;SDS011;11249;52.468;13.776;2022-09-09T06:08:43;8.57;;;7.32;;
22166;SDS011;11249;52.468;13.776;2022-09-09T06:11:12;11.27;;;7.38;;
22166;SDS011;11249;52.468;13.776;2022-09-09T06:13:41;9.20;;;6.72;;
22166;SDS011;11249;52.468;13.776;2022-09-09T06:16:08;9.10;;;6.45;;
22166;SDS011;11249;52.468;13.776;2022-09-09T06:18:38;10.37;;;6.33;;
22166;SDS011;11249;52.468;13.776;2022-09-09T06:21:05;7.03;;;6.22;;
22166;SDS011;11249;52.468;13.776;2022-09-09T06:23:34;9.85;;;5.90;;
22166;SDS011;11249;52.468;13.776;2022-09-09T06:26:11;8.90;;;6.03;;
22166;SDS011;11249;52.468;13.776;2022-09-09T06:28:47;8.30;;;5.47;;
22166;SDS011;11249;52.468;13.776;2022-09-09T06:31:17;6.38;;;5.07;;
22166;SDS011;11249;52.468;13.776;2022-09-09T06:33:54;11.13;;;5.95;;
22166;SDS011;11249;52.468;13.776;2022-09-09T06:36:22;8.75;;;6.05;;
22166;SDS011;11249;52.468;13.776;2022-09-09T06:38:50;7.05;;;5.05;;
22166;SDS011;11249;52.468;13.776;2022-09-09T06:41:17;8.60;;;5.22;;
22166;SDS011;11249;52.468;13.776;2022-09-09T06:43:46;31.65;;;6.18;;
22166;SDS011;11249;52.468;13.776;2022-09-09T06:46:14;7.10;;;5.95;;
22166;SDS011;11249;52.468;13.776;2022-09-09T06:48:46;5.90;;;4.72;;
22166;SDS011;11249;52.468;13.776;2022-09-09T06:51:14;8.68;;;5.05;;
22166;SDS011;11249;52.468;13.776;2022-09-09T06:53:47;7.20;;;5.15;;
22166;SDS011;11249;52.468;13.776;2022-09-09T06:56:20;7.30;;;4.72;;
22166;SDS011;11249;52.468;13.776;2022-09-09T06:58:50;7.88;;;4.82;;
22166;SDS011;11249;52.468;13.776;2022-09-09T07:01:19;6.35;;;4.40;;
22166;SDS011;11249;52.468;13.776;2022-09-09T07:03:50;5.25;;;4.50;;
22166;SDS011;11249;52.468;13.776;2022-09-09T07:06:23;7.07;;;4.57;;
22166;SDS011;11249;52.468;13.776;2022-09-09T07:09:00;6.90;;;4.20;;
22166;SDS011;11249;52.468;13.776;2022-09-09T07:11:34;7.32;;;4.93;;
22166;SDS011;11249;52.468;13.776;2022-09-09T07:14:11;7.18;;;4.60;;
22166;SDS011;11249;52.468;13.776;2022-09-09T07:16:41;7.50;;;4.70;;
22166;SDS011;11249;52.468;13.776;2022-09-09T07:19:09;5.50;;;4.78;;
22166;SDS011;11249;52.468;13.776;2022-09-09T07:21:36;9.65;;;4.45;;
22166;SDS011;11249;52.468;13.776;2022-09-09T07:24:03;9.32;;;4.85;;
22166;SDS011;11249;52.468;13.776;2022-09-09T07:26:33;8.75;;;4.82;;
22166;SDS011;11249;52.468;13.776;2022-09-09T07:29:00;8.63;;;4.43;;
22166;SDS011;11249;52.468;13.776;2022-09-09T07:31:28;8.85;;;4.65;;
22166;SDS011;11249;52.468;13.776;2022-09-09T07:33:57;6.13;;;4.65;;
22166;SDS011;11249;52.468;13.776;2022-09-09T07:36:25;7.65;;;4.32;;
22166;SDS011;11249;52.468;13.776;2022-09-09T07:38:59;8.50;;;4.43;;
22166;SDS011;11249;52.468;13.776;2022-09-09T07:41:44;6.32;;;4.43;;
22166;SDS011;11249;52.468;13.776;2022-09-09T07:44:13;7.25;;;4.68;;
22166;SDS011;11249;52.468;13.776;2022-09-09T07:46:42;8.93;;;4.30;;
22166;SDS011;11249;52.468;13.776;2022-09-09T07:49:09;6.03;;;4.10;;
22166;SDS011;11249;52.468;13.776;2022-09-09T07:51:38;7.57;;;4.05;;
22166;SDS011;11249;52.468;13.776;2022-09-09T07:54:08;5.68;;;3.85;;
22166;SDS011;11249;52.468;13.776;2022-09-09T07:59:05;7.53;;;4.25;;
22166;SDS011;11249;52.468;13.776;2022-09-09T08:01:34;6.88;;;3.55;;
22166;SDS011;11249;52.468;13.776;2022-09-09T08:04:09;5.00;;;3.67;;
22166;SDS011;11249;52.468;13.776;2022-09-09T08:06:44;8.93;;;3.83;;
22166;SDS011;11249;52.468;13.776;2022-09-09T08:09:14;6.70;;;3.40;;
22166;SDS011;11249;52.468;13.776;2022-09-09T08:11:41;7.25;;;3.58;;
22166;SDS011;11249;52.468;13.776;2022-09-09T08:14:09;3.97;;;3.50;;
22166;SDS011;11249;52.468;13.776;2022-09-09T08:16:38;6.53;;;3.20;;
22166;SDS011;11249;52.468;13.776;2022-09-09T08:21:35;6.65;;;3.10;;
22166;SDS011;11249;52.468;13.776;2022-09-09T08:24:04;5.50;;;3.33;;
22166;SDS011;11249;52.468;13.776;2022-09-09T08:26:34;5.63;;;3.28;;
22166;SDS011;11249;52.468;13.776;2022-09-09T08:29:03;6.50;;;3.30;;
22166;SDS011;11249;52.468;13.776;2022-09-09T08:31:36;4.45;;;2.97;;
22166;SDS011;11249;52.468;13.776;2022-09-09T08:34:05;4.25;;;3.03;;
22166;SDS011;11249;52.468;13.776;2022-09-09T08:36:34;5.05;;;3.20;;
22166;SDS011;11249;52.468;13.776;2022-09-09T08:39:03;6.50;;;2.70;;
22166;SDS011;11249;52.468;13.776;2022-09-09T08:41:44;6.10;;;3.05;;
22166;SDS011;11249;52.468;13.776;2022-09-09T08:50:05;5.82;;;2.80;;
22166;SDS011;11249;52.468;13.776;2022-09-09T08:53:04;7.57;;;2.83;;
22166;SDS011;11249;52.468;13.776;2022-09-09T08:58:19;8.27;;;3.00;;
22166;SDS011;11249;52.468;13.776;2022-09-09T09:03:43;8.73;;;2.70;;
22166;SDS011;11249;52.468;13.776;2022-09-09T09:06:46;5.32;;;3.10;;
22166;SDS011;11249;52.468;13.776;2022-09-09T09:09:26;5.70;;;2.80;;
22166;SDS011;11249;52.468;13.776;2022-09-09T09:12:22;6.03;;;2.97;;
22166;SDS011;11249;52.468;13.776;2022-09-09T09:14:51;4.73;;;2.90;;
22166;SDS011;11249;52.468;13.776;2022-09-09T09:17:19;5.57;;;3.00;;
22166;SDS011;11249;52.468;13.776;2022-09-09T09:19:47;3.22;;;2.88;;
22166;SDS011;11249;52.468;13.776;2022-09-09T09:22:22;6.03;;;2.67;;
22166;SDS011;11249;52.468;13.776;2022-09-09T09:25:11;5.30;;;2.35;;
22166;SDS011;11249;52.468;13.776;2022-09-09T09:30:57;6.53;;;2.22;;
22166;SDS011;11249;52.468;13.776;2022-09-09T09:33:46;5.03;;;1.87;;
22166;SDS011;11249;52.468;13.776;2022-09-09T09:36:40;3.58;;;2.17;;
22166;SDS011;11249;52.468;13.776;2022-09-09T09:39:08;5.07;;;2.00;;
22166;SDS011;11249;52.468;13.776;2022-09-09T09:41:55;8.20;;;2.53;;
22166;SDS011;11249;52.468;13.776;2022-09-09T09:44:25;4.07;;;2.53;;
22166;SDS011;11249;52.468;13.776;2022-09-09T09:49:55;4.72;;;1.95;;
22166;SDS011;11249;52.468;13.776;2022-09-09T09:52:26;3.17;;;1.90;;
22166;SDS011;11249;52.468;13.776;2022-09-09T09:54:55;4.95;;;2.20;;
22166;SDS011;11249;52.468;13.776;2022-09-09T09:57:30;4.47;;;2.17;;
22166;SDS011;11249;52.468;13.776;2022-09-09T10:00:03;4.03;;;2.05;;
22166;SDS011;11249;52.468;13.776;2022-09-09T10:02:41;5.07;;;1.98;;
22166;SDS011;11249;52.468;13.776;2022-09-09T10:05:20;5.80;;;2.10;;
22166;SDS011;11249;52.468;13.776;2022-09-09T10:08:03;5.93;;;2.25;;
22166;SDS011;11249;52.468;13.776;2022-09-09T10:10:44;6.50;;;1.60;;
22166;SDS011;11249;52.468;13.776;2022-09-09T10:16:02;3.15;;;1.70;;
22166;SDS011;11249;52.468;13.776;2022-09-09T10:18:44;6.75;;;2.03;;
22166;SDS011;11249;52.468;13.776;2022-09-09T10:21:27;5.00;;;2.35;;
22166;SDS011;11249;52.468;13.776;2022-09-09T10:49:30;5.05;;;1.90;;
22166;SDS011;11249;52.468;13.776;2022-09-09T10:52:23;7.50;;;1.50;;
22166;SDS011;11249;52.468;13.776;2022-09-09T10:55:13;3.70;;;1.90;;
22166;SDS011;11249;52.468;13.776;2022-09-09T10:57:46;4.80;;;1.90;;
22166;SDS011;11249;52.468;13.776;2022-09-09T11:00:18;6.47;;;1.92;;
22166;SDS011;11249;52.468;13.776;2022-09-09T11:05:36;5.97;;;2.15;;
22166;SDS011;11249;52.468;13.776;2022-09-09T11:08:10;6.28;;;2.40;;
22166;SDS011;11249;52.468;13.776;2022-09-09T11:10:53;3.90;;;1.67;;
22166;SDS011;11249;52.468;13.776;2022-09-09T11:13:28;2.83;;;1.50;;
22166;SDS011;11249;52.468;13.776;2022-09-09T11:16:03;4.28;;;1.67;;
22166;SDS011;11249;52.468;13.776;2022-09-09T11:18:45;5.35;;;1.67;;
22166;SDS011;11249;52.468;13.776;2022-09-09T11:21:16;2.97;;;1.38;;
22166;SDS011;11249;52.468;13.776;2022-09-09T11:23:50;3.15;;;1.92;;
22166;SDS011;11249;52.468;13.776;2022-09-09T11:26:25;3.72;;;1.40;;
22166;SDS011;11249;52.468;13.776;2022-09-09T11:29:25;3.58;;;1.30;;
22166;SDS011;11249;52.468;13.776;2022-09-09T11:40:14;4.07;;;1.42;;
22166;SDS011;11249;52.468;13.776;2022-09-09T11:42:48;4.20;;;2.00;;
22166;SDS011;11249;52.468;13.776;2022-09-09T11:45:23;3.85;;;1.30;;
22166;SDS011;11249;52.468;13.776;2022-09-09T11:47:57;6.82;;;1.85;;
22166;SDS011;11249;52.468;13.776;2022-09-09T11:53:15;4.45;;;1.30;;
22166;SDS011;11249;52.468;13.776;2022-09-09T11:56:02;5.88;;;1.70;;
22166;SDS011;11249;52.468;13.776;2022-09-09T11:58:34;5.15;;;1.20;;
22166;SDS011;11249;52.468;13.776;2022-09-09T12:01:14;4.97;;;1.30;;
22166;SDS011;11249;52.468;13.776;2022-09-09T12:03:54;3.03;;;1.20;;
22166;SDS011;11249;52.468;13.776;2022-09-09T12:06:46;3.50;;;1.48;;
22166;SDS011;11249;52.468;13.776;2022-09-09T12:09:28;3.30;;;1.25;;
22166;SDS011;11249;52.468;13.776;2022-09-09T12:19:46;3.45;;;1.30;;
22166;SDS011;11249;52.468;13.776;2022-09-09T12:24:54;3.45;;;1.00;;
22166;SDS011;11249;52.468;13.776;2022-09-09T12:33:18;3.45;;;0.90;;
22166;SDS011;11249;52.468;13.776;2022-09-09T12:35:47;4.07;;;1.25;;
22166;SDS011;11249;52.468;13.776;2022-09-09T12:38:31;2.28;;;1.00;;
22166;SDS011;11249;52.468;13.776;2022-09-09T12:41:00;1.90;;;0.90;;
22166;SDS011;11249;52.468;13.776;2022-09-09T12:43:27;2.28;;;1.08;;
22166;SDS011;11249;52.468;13.776;2022-09-09T12:45:56;4.72;;;1.08;;
22166;SDS011;11249;52.468;13.776;2022-09-09T12:51:03;3.78;;;1.20;;
22166;SDS011;11249;52.468;13.776;2022-09-09T12:53:33;4.38;;;1.38;;
22166;SDS011;11249;52.468;13.776;2022-09-09T12:56:06;2.22;;;0.95;;
22166;SDS011;11249;52.468;13.776;2022-09-09T12:58:35;4.00;;;1.05;;
22166;SDS011;11249;52.468;13.776;2022-09-09T13:01:04;2.25;;;1.10;;
22166;SDS011;11249;52.468;13.776;2022-09-09T13:03:32;3.63;;;1.10;;
22166;SDS011;11249;52.468;13.776;2022-09-09T13:06:33;3.63;;;1.00;;
22166;SDS011;11249;52.468;13.776;2022-09-09T13:09:03;2.28;;;1.05;;
22166;SDS011;11249;52.468;13.776;2022-09-09T13:11:37;1.63;;;1.00;;
22166;SDS011;11249;52.468;13.776;2022-09-09T13:14:18;4.00;;;1.40;;
22166;SDS011;11249;52.468;13.776;2022-09-09T13:16:58;6.93;;;1.25;;
22166;SDS011;11249;52.468;13.776;2022-09-09T13:19:28;2.97;;;1.10;;
22166;SDS011;11249;52.468;13.776;2022-09-09T13:21:58;3.35;;;1.50;;
22166;SDS011;11249;52.468;13.776;2022-09-09T13:27:50;3.85;;;1.38;;
22166;SDS011;11249;52.468;13.776;2022-09-09T13:29:57;4.10;;;1.10;;
22166;SDS011;11249;52.468;13.776;2022-09-09T13:32:24;3.45;;;1.27;;
22166;SDS011;11249;52.468;13.776;2022-09-09T13:34:59;1.55;;;1.00;;
22166;SDS011;11249;52.468;13.776;2022-09-09T13:40:02;3.47;;;0.98;;
22166;SDS011;11249;52.468;13.776;2022-09-09T13:42:33;4.85;;;1.42;;
22166;SDS011;11249;52.468;13.776;2022-09-09T13:45:05;4.25;;;1.20;;
22166;SDS011;11249;52.468;13.776;2022-09-09T13:47:36;6.13;;;1.45;;
22166;SDS011;11249;52.468;13.776;2022-09-09T13:50:19;5.00;;;1.00;;
22166;SDS011;11249;52.468;13.776;2022-09-09T13:55:21;3.28;;;0.77;;
22166;SDS011;11249;52.468;13.776;2022-09-09T13:57:59;6.03;;;1.30;;
22166;SDS011;11249;52.468;13.776;2022-09-09T14:00:29;6.85;;;1.00;;
22166;SDS011;11249;52.468;13.776;2022-09-09T14:02:57;3.92;;;0.90;;
22166;SDS011;11249;52.468;13.776;2022-09-09T14:05:24;3.05;;;1.17;;
22166;SDS011;11249;52.468;13.776;2022-09-09T14:07:51;4.10;;;0.88;;
22166;SDS011;11249;52.468;13.776;2022-09-09T14:10:18;1.73;;;0.95;;
22166;SDS011;11249;52.468;13.776;2022-09-09T14:12:45;3.58;;;1.10;;
22166;SDS011;11249;52.468;13.776;2022-09-09T14:15:12;4.78;;;1.10;;
22166;SDS011;11249;52.468;13.776;2022-09-09T14:17:40;3.20;;;0.98;;
22166;SDS011;11249;52.468;13.776;2022-09-09T14:20:07;3.17;;;0.85;;
22166;SDS011;11249;52.468;13.776;2022-09-09T14:22:35;3.08;;;1.05;;
22166;SDS011;11249;52.468;13.776;2022-09-09T14:25:02;3.67;;;1.00;;
22166;SDS011;11249;52.468;13.776;2022-09-09T14:27:30;2.67;;;1.00;;
22166;SDS011;11249;52.468;13.776;2022-09-09T14:29:57;2.30;;;1.02;;
22166;SDS011;11249;52.468;13.776;2022-09-09T14:32:24;3.13;;;1.30;;
22166;SDS011;11249;52.468;13.776;2022-09-09T14:34:50;4.35;;;1.45;;
22166;SDS011;11249;52.468;13.776;2022-09-09T14:37:17;2.40;;;1.27;;
22166;SDS011;11249;52.468;13.776;2022-09-09T14:39:44;5.22;;;1.00;;
22166;SDS011;11249;52.468;13.776;2022-09-09T14:42:13;5.18;;;1.35;;
22166;SDS011;11249;52.468;13.776;2022-09-09T14:44:41;4.32;;;1.10;;
22166;SDS011;11249;52.468;13.776;2022-09-09T14:47:08;6.35;;;1.38;;
22166;SDS011;11249;52.468;13.776;2022-09-09T14:49:35;3.22;;;1.00;;
22166;SDS011;11249;52.468;13.776;2022-09-09T14:52:02;1.88;;;0.82;;
22166;SDS011;11249;52.468;13.776;2022-09-09T14:54:30;4.40;;;1.08;;
22166;SDS011;11249;52.468;13.776;2022-09-09T14:59:26;3.08;;;1.10;;
22166;SDS011;11249;52.468;13.776;2022-09-09T15:01:53;3.65;;;1.00;;
22166;SDS011;11249;52.468;13.776;2022-09-09T15:04:20;2.97;;;1.05;;
22166;SDS011;11249;52.468;13.776;2022-09-09T15:06:46;5.45;;;1.60;;
22166;SDS011;11249;52.468;13.776;2022-09-09T15:09:14;5.75;;;0.82;;
22166;SDS011;11249;52.468;13.776;2022-09-09T15:11:41;5.35;;;1.20;;
22166;SDS011;11249;52.468;13.776;2022-09-09T15:14:09;2.95;;;1.00;;
22166;SDS011;11249;52.468;13.776;2022-09-09T15:16:38;5.35;;;1.15;;
22166;SDS011;11249;52.468;13.776;2022-09-09T15:19:05;4.18;;;1.10;;
22166;SDS011;11249;52.468;13.776;2022-09-09T15:21:34;2.95;;;1.38;;
22166;SDS011;11249;52.468;13.776;2022-09-09T15:24:01;6.60;;;1.20;;
22166;SDS011;11249;52.468;13.776;2022-09-09T15:26:29;5.72;;;1.30;;
22166;SDS011;11249;52.468;13.776;2022-09-09T15:28:56;2.72;;;1.10;;
22166;SDS011;11249;52.468;13.776;2022-09-09T15:31:26;3.03;;;0.90;;
22166;SDS011;11249;52.468;13.776;2022-09-09T15:34:03;2.58;;;1.08;;
22166;SDS011;11249;52.468;13.776;2022-09-09T15:36:33;2.83;;;1.02;;
22166;SDS011;11249;52.468;13.776;2022-09-09T15:39:01;1.77;;;0.93;;
22166;SDS011;11249;52.468;13.776;2022-09-09T15:41:29;2.33;;;1.08;;
22166;SDS011;11249;52.468;13.776;2022-09-09T15:43:57;4.40;;;1.38;;
22166;SDS011;11249;52.468;13.776;2022-09-09T15:46:26;4.18;;;1.10;;
22166;SDS011;11249;52.468;13.776;2022-09-09T15:49:04;4.63;;;1.20;;
22166;SDS011;11249;52.468;13.776;2022-09-09T15:51:33;2.28;;;1.20;;
22166;SDS011;11249;52.468;13.776;2022-09-09T15:54:16;4.90;;;1.40;;
22166;SDS011;11249;52.468;13.776;2022-09-09T15:56:45;1.50;;;1.10;;
22166;SDS011;11249;52.468;13.776;2022-09-09T15:59:14;5.68;;;1.20;;
22166;SDS011;11249;52.468;13.776;2022-09-09T16:01:41;5.47;;;1.30;;
22166;SDS011;11249;52.468;13.776;2022-09-09T16:04:09;4.32;;;1.33;;
22166;SDS011;11249;52.468;13.776;2022-09-09T16:06:36;3.95;;;1.02;;
22166;SDS011;11249;52.468;13.776;2022-09-09T16:09:04;4.20;;;1.20;;
22166;SDS011;11249;52.468;13.776;2022-09-09T16:11:32;4.45;;;1.38;;
22166;SDS011;11249;52.468;13.776;2022-09-09T16:14:02;5.03;;;1.30;;
22166;SDS011;11249;52.468;13.776;2022-09-09T16:16:30;3.30;;;1.40;;
22166;SDS011;11249;52.468;13.776;2022-09-09T16:19:02;5.78;;;1.25;;
22166;SDS011;11249;52.468;13.776;2022-09-09T16:21:53;7.13;;;1.63;;
22166;SDS011;11249;52.468;13.776;2022-09-09T16:24:19;4.40;;;1.50;;
22166;SDS011;11249;52.468;13.776;2022-09-09T16:26:47;4.32;;;1.13;;
22166;SDS011;11249;52.468;13.776;2022-09-09T16:29:16;5.47;;;0.90;;
22166;SDS011;11249;52.468;13.776;2022-09-09T16:31:45;3.15;;;1.15;;
22166;SDS011;11249;52.468;13.776;2022-09-09T16:34:13;3.15;;;1.17;;
22166;SDS011;11249;52.468;13.776;2022-09-09T16:36:41;4.97;;;1.20;;
22166;SDS011;11249;52.468;13.776;2022-09-09T16:39:09;4.63;;;0.98;;
22166;SDS011;11249;52.468;13.776;2022-09-09T16:41:41;3.92;;;0.90;;
22166;SDS011;11249;52.468;13.776;2022-09-09T16:44:10;7.63;;;1.30;;
22166;SDS011;11249;52.468;13.776;2022-09-09T16:46:39;1.17;;;0.60;;
22166;SDS011;11249;52.468;13.776;2022-09-09T16:49:09;3.00;;;0.97;;
22166;SDS011;11249;52.468;13.776;2022-09-09T16:51:38;1.10;;;0.70;;
22166;SDS011;11249;52.468;13.776;2022-09-09T16:54:10;2.83;;;0.90;;
22166;SDS011;11249;52.468;13.776;2022-09-09T16:56:38;3.78;;;0.98;;
22166;SDS011;11249;52.468;13.776;2022-09-09T16:59:10;1.70;;;0.82;;
22166;SDS011;11249;52.468;13.776;2022-09-09T17:01:40;2.85;;;0.77;;
22166;SDS011;11249;52.468;13.776;2022-09-09T17:04:15;2.10;;;1.00;;
22166;SDS011;11249;52.468;13.776;2022-09-09T17:06:47;1.60;;;0.90;;
22166;SDS011;11249;52.468;13.776;2022-09-09T17:09:18;5.80;;;1.30;;
22166;SDS011;11249;52.468;13.776;2022-09-09T17:11:45;3.47;;;0.95;;
22166;SDS011;11249;52.468;13.776;2022-09-09T17:14:15;3.83;;;1.58;;
22166;SDS011;11249;52.468;13.776;2022-09-09T17:16:43;14.40;;;8.68;;
22166;SDS011;11249;52.468;13.776;2022-09-09T17:19:10;3.50;;;1.33;;